sensor_id;sensor_type;location;lat;lon;timestamp;pressure;altitude;pressure_sealevel;temperature;humidity
42247;BME280;27913;42.722;23.268;2022-12-22T00:02:20;95258.25;;;-1.44;84.70
42247;BME280;27913;42.722;23.268;2022-12-22T00:05:12;95187.47;;;-1.90;84.14
42247;BME280;27913;42.722;23.268;2022-12-22T00:07:56;95259.44;;;-1.48;83.83
42247;BME280;27913;42.722;23.268;2022-12-22T00:10:40;95064.50;;;-2.78;83.00
42247;BME280;27913;42.722;23.268;2022-12-22T00:13:24;95204.91;;;-1.94;83.49
42247;BME280;27913;42.722;23.268;2022-12-22T00:16:08;95269.63;;;-1.60;83.59
42247;BME280;27913;42.722;23.268;2022-12-22T00:18:52;95172.03;;;-2.16;83.81
42247;BME280;27913;42.722;23.268;2022-12-22T00:21:36;95267.91;;;-1.59;83.42
42247;BME280;27913;42.722;23.268;2022-12-22T00:24:19;95204.63;;;-2.02;83.38
42247;BME280;27913;42.722;23.268;2022-12-22T00:27:04;95264.19;;;-1.68;83.15
42247;BME280;27913;42.722;23.268;2022-12-22T00:29:48;95203.66;;;-2.01;82.99
42247;BME280;27913;42.722;23.268;2022-12-22T00:32:34;95221.72;;;-1.88;83.66
42247;BME280;27913;42.722;23.268;2022-12-22T00:35:21;95259.53;;;-1.63;83.75
42247;BME280;27913;42.722;23.268;2022-12-22T00:38:12;95086.41;;;-2.72;83.43
42247;BME280;27913;42.722;23.268;2022-12-22T00:40:56;95254.28;;;-1.61;83.91
42247;BME280;27913;42.722;23.268;2022-12-22T00:43:40;95255.09;;;-1.61;83.89
42247;BME280;27913;42.722;23.268;2022-12-22T00:46:24;95215.94;;;-1.92;84.14
42247;BME280;27913;42.722;23.268;2022-12-22T00:49:09;95037.38;;;-2.97;83.93
42247;BME280;27913;42.722;23.268;2022-12-22T00:51:53;95246.75;;;-1.64;84.22
42247;BME280;27913;42.722;23.268;2022-12-22T00:54:37;95249.00;;;-1.60;84.09
42247;BME280;27913;42.722;23.268;2022-12-22T00:57:23;95250.88;;;-1.62;83.98
42247;BME280;27913;42.722;23.268;2022-12-22T01:00:16;95253.53;;;-1.63;84.17
42247;BME280;27913;42.722;23.268;2022-12-22T01:05:33;95237.06;;;-1.61;83.75
42247;BME280;27913;42.722;23.268;2022-12-22T01:08:17;95096.41;;;-2.55;83.87
42247;BME280;27913;42.722;23.268;2022-12-22T01:11:02;95102.38;;;-2.54;83.92
42247;BME280;27913;42.722;23.268;2022-12-22T01:13:46;95098.56;;;-2.61;84.51
42247;BME280;27913;42.722;23.268;2022-12-22T01:16:30;95233.84;;;-1.77;85.20
42247;BME280;27913;42.722;23.268;2022-12-22T01:19:13;95235.13;;;-1.83;85.30
42247;BME280;27913;42.722;23.268;2022-12-22T01:21:57;95234.28;;;-1.84;85.52
42247;BME280;27913;42.722;23.268;2022-12-22T01:24:42;95063.63;;;-2.92;86.16
42247;BME280;27913;42.722;23.268;2022-12-22T01:27:27;95224.06;;;-1.98;86.72
42247;BME280;27913;42.722;23.268;2022-12-22T01:30:11;95162.03;;;-2.34;86.55
42247;BME280;27913;42.722;23.268;2022-12-22T01:32:55;95236.88;;;-2.10;86.85
42247;BME280;27913;42.722;23.268;2022-12-22T01:35:39;95124.50;;;-2.77;86.79
42247;BME280;27913;42.722;23.268;2022-12-22T01:38:23;95048.81;;;-3.27;86.78
42247;BME280;27913;42.722;23.268;2022-12-22T01:41:09;95118.56;;;-2.78;87.01
42247;BME280;27913;42.722;23.268;2022-12-22T01:43:55;95236.88;;;-2.10;86.48
42247;BME280;27913;42.722;23.268;2022-12-22T01:46:44;95152.66;;;-2.61;86.08
42247;BME280;27913;42.722;23.268;2022-12-22T01:49:40;95164.41;;;-2.57;85.72
42247;BME280;27913;42.722;23.268;2022-12-22T01:52:30;95045.06;;;-3.36;85.90
42247;BME280;27913;42.722;23.268;2022-12-22T01:55:19;95230.91;;;-2.23;85.92
42247;BME280;27913;42.722;23.268;2022-12-22T01:58:10;95231.09;;;-2.26;86.00
42247;BME280;27913;42.722;23.268;2022-12-22T02:01:01;95237.06;;;-2.26;86.23
42247;BME280;27913;42.722;23.268;2022-12-22T02:03:45;95237.06;;;-2.26;86.16
42247;BME280;27913;42.722;23.268;2022-12-22T02:06:37;95134.69;;;-2.89;86.22
42247;BME280;27913;42.722;23.268;2022-12-22T02:15:45;95222.34;;;-2.24;87.25
42247;BME280;27913;42.722;23.268;2022-12-22T02:24:42;95215.13;;;-2.19;87.85
42247;BME280;27913;42.722;23.268;2022-12-22T02:27:30;95097.03;;;-2.90;87.90
42247;BME280;27913;42.722;23.268;2022-12-22T02:30:17;95184.63;;;-2.38;87.21
42247;BME280;27913;42.722;23.268;2022-12-22T02:33:01;95147.63;;;-2.50;87.03
42247;BME280;27913;42.722;23.268;2022-12-22T02:39:18;95150.09;;;-2.48;86.95
42247;BME280;27913;42.722;23.268;2022-12-22T02:48:31;95218.31;;;-2.15;86.51
42247;BME280;27913;42.722;23.268;2022-12-22T02:51:22;95216.47;;;-2.13;86.58
42247;BME280;27913;42.722;23.268;2022-12-22T02:54:08;95213.06;;;-2.13;86.70
42247;BME280;27913;42.722;23.268;2022-12-22T02:56:53;95135.56;;;-2.62;86.92
42247;BME280;27913;42.722;23.268;2022-12-22T02:59:37;95151.22;;;-2.52;86.83
42247;BME280;27913;42.722;23.268;2022-12-22T03:02:21;95205.44;;;-2.28;87.13
42247;BME280;27913;42.722;23.268;2022-12-22T03:05:05;95203.47;;;-2.24;87.34
42247;BME280;27913;42.722;23.268;2022-12-22T03:07:49;95206.66;;;-2.21;87.25
42247;BME280;27913;42.722;23.268;2022-12-22T03:10:33;95138.13;;;-2.62;87.24
42247;BME280;27913;42.722;23.268;2022-12-22T03:13:17;95205.84;;;-2.21;87.57
42247;BME280;27913;42.722;23.268;2022-12-22T03:16:01;95201.84;;;-2.25;87.63
42247;BME280;27913;42.722;23.268;2022-12-22T03:18:44;95143.47;;;-2.52;87.96
42247;BME280;27913;42.722;23.268;2022-12-22T03:21:28;95054.38;;;-3.07;87.72
42247;BME280;27913;42.722;23.268;2022-12-22T03:24:12;95124.53;;;-2.64;87.17
42247;BME280;27913;42.722;23.268;2022-12-22T03:26:56;95142.44;;;-2.63;86.81
42247;BME280;27913;42.722;23.268;2022-12-22T03:29:22;95154.41;;;-2.49;86.90
42247;BME280;27913;42.722;23.268;2022-12-22T03:31:47;94994.97;;;-3.43;86.83
42247;BME280;27913;42.722;23.268;2022-12-22T03:34:13;95139.91;;;-2.50;86.95
42247;BME280;27913;42.722;23.268;2022-12-22T03:36:39;95153.41;;;-2.46;86.53
42247;BME280;27913;42.722;23.268;2022-12-22T03:39:04;95209.16;;;-2.06;86.71
42247;BME280;27913;42.722;23.268;2022-12-22T03:41:30;95037.78;;;-3.16;87.45
42247;BME280;27913;42.722;23.268;2022-12-22T03:44:15;95174.28;;;-2.25;87.91
42247;BME280;27913;42.722;23.268;2022-12-22T03:46:59;95102.28;;;-2.79;87.44
42247;BME280;27913;42.722;23.268;2022-12-22T03:49:25;95149.78;;;-2.44;87.62
42247;BME280;27913;42.722;23.268;2022-12-22T03:51:52;95090.22;;;-2.78;87.27
42247;BME280;27913;42.722;23.268;2022-12-22T03:54:22;95153.81;;;-2.39;87.55
42247;BME280;27913;42.722;23.268;2022-12-22T03:56:49;95048.19;;;-3.05;87.31
42247;BME280;27913;42.722;23.268;2022-12-22T03:59:16;95087.66;;;-2.78;86.90
42247;BME280;27913;42.722;23.268;2022-12-22T04:01:47;95202.22;;;-2.06;86.96
42247;BME280;27913;42.722;23.268;2022-12-22T04:04:15;95144.50;;;-2.42;86.73
42247;BME280;27913;42.722;23.268;2022-12-22T04:06:41;95026.78;;;-3.18;86.47
42247;BME280;27913;42.722;23.268;2022-12-22T04:09:07;95047.25;;;-3.04;86.13
42247;BME280;27913;42.722;23.268;2022-12-22T04:11:32;95191.72;;;-2.15;86.02
42247;BME280;27913;42.722;23.268;2022-12-22T04:14:17;95207.28;;;-2.17;85.62
42247;BME280;27913;42.722;23.268;2022-12-22T04:16:42;95150.47;;;-2.55;86.12
42247;BME280;27913;42.722;23.268;2022-12-22T04:19:08;95208.31;;;-2.20;86.15
42247;BME280;27913;42.722;23.268;2022-12-22T04:21:34;95214.50;;;-2.22;85.80
42247;BME280;27913;42.722;23.268;2022-12-22T04:24:00;95204.69;;;-2.30;85.65
42247;BME280;27913;42.722;23.268;2022-12-22T04:26:26;95215.09;;;-2.32;85.74
42247;BME280;27913;42.722;23.268;2022-12-22T04:28:52;95199.97;;;-2.36;85.86
42247;BME280;27913;42.722;23.268;2022-12-22T04:31:18;95175.00;;;-2.49;86.15
42247;BME280;27913;42.722;23.268;2022-12-22T04:33:44;95151.84;;;-2.62;86.23
42247;BME280;27913;42.722;23.268;2022-12-22T04:36:10;95136.69;;;-2.67;86.15
42247;BME280;27913;42.722;23.268;2022-12-22T04:38:37;95205.31;;;-2.26;86.10
42247;BME280;27913;42.722;23.268;2022-12-22T04:41:05;95055.38;;;-3.23;85.99
42247;BME280;27913;42.722;23.268;2022-12-22T04:43:31;95196.97;;;-2.30;86.26
42247;BME280;27913;42.722;23.268;2022-12-22T04:45:56;95203.06;;;-2.31;86.40
42247;BME280;27913;42.722;23.268;2022-12-22T04:48:23;95204.00;;;-2.32;86.29
42247;BME280;27913;42.722;23.268;2022-12-22T04:50:50;95132.75;;;-2.72;86.25
42247;BME280;27913;42.722;23.268;2022-12-22T04:53:16;95202.94;;;-2.29;85.94
42247;BME280;27913;42.722;23.268;2022-12-22T04:55:52;95080.63;;;-3.15;85.30
42247;BME280;27913;42.722;23.268;2022-12-22T04:58:21;95194.91;;;-2.38;85.39
42247;BME280;27913;42.722;23.268;2022-12-22T05:00:46;95201.72;;;-2.37;85.97
42247;BME280;27913;42.722;23.268;2022-12-22T05:03:12;95011.28;;;-3.57;85.76
42247;BME280;27913;42.722;23.268;2022-12-22T05:05:37;95202.53;;;-2.36;85.66
42247;BME280;27913;42.722;23.268;2022-12-22T05:08:03;95201.91;;;-2.40;85.70
42247;BME280;27913;42.722;23.268;2022-12-22T05:10:29;95201.09;;;-2.40;86.11
42247;BME280;27913;42.722;23.268;2022-12-22T05:12:55;95088.84;;;-3.10;85.83
42247;BME280;27913;42.722;23.268;2022-12-22T05:15:30;95146.25;;;-2.82;86.25
42247;BME280;27913;42.722;23.268;2022-12-22T05:17:56;95205.09;;;-2.49;86.57
42247;BME280;27913;42.722;23.268;2022-12-22T05:20:23;95135.72;;;-2.92;86.93
42247;BME280;27913;42.722;23.268;2022-12-22T05:22:49;95216.03;;;-2.46;86.77
42247;BME280;27913;42.722;23.268;2022-12-22T05:25:15;95169.84;;;-2.75;87.04
42247;BME280;27913;42.722;23.268;2022-12-22T05:27:43;95210.56;;;-2.54;86.78
42247;BME280;27913;42.722;23.268;2022-12-22T05:30:09;95039.56;;;-3.57;87.31
42247;BME280;27913;42.722;23.268;2022-12-22T05:32:34;95206.75;;;-2.48;87.13
42247;BME280;27913;42.722;23.268;2022-12-22T05:35:01;95209.53;;;-2.51;87.28
42247;BME280;27913;42.722;23.268;2022-12-22T05:37:27;95152.94;;;-2.92;87.27
42247;BME280;27913;42.722;23.268;2022-12-22T05:39:52;95154.56;;;-2.91;87.40
42247;BME280;27913;42.722;23.268;2022-12-22T05:42:18;95173.53;;;-2.79;87.69
42247;BME280;27913;42.722;23.268;2022-12-22T05:45:20;95216.22;;;-2.49;87.72
42247;BME280;27913;42.722;23.268;2022-12-22T05:47:50;95073.16;;;-3.33;87.59
42247;BME280;27913;42.722;23.268;2022-12-22T05:50:19;95143.44;;;-2.92;87.57
42247;BME280;27913;42.722;23.268;2022-12-22T05:52:45;95116.53;;;-3.13;87.92
42247;BME280;27913;42.722;23.268;2022-12-22T05:55:13;95213.34;;;-2.57;87.97
42247;BME280;27913;42.722;23.268;2022-12-22T05:57:39;95208.19;;;-2.57;88.18
42247;BME280;27913;42.722;23.268;2022-12-22T06:00:07;95090.53;;;-3.36;88.13
42247;BME280;27913;42.722;23.268;2022-12-22T06:02:32;95211.78;;;-2.60;88.28
42247;BME280;27913;42.722;23.268;2022-12-22T06:04:58;95094.97;;;-3.38;88.24
42247;BME280;27913;42.722;23.268;2022-12-22T06:07:23;95210.25;;;-2.62;88.21
42247;BME280;27913;42.722;23.268;2022-12-22T06:09:49;95140.22;;;-3.08;87.75
42247;BME280;27913;42.722;23.268;2022-12-22T06:12:14;95212.91;;;-2.64;87.83
42247;BME280;27913;42.722;23.268;2022-12-22T06:14:40;95220.03;;;-2.68;87.82
42247;BME280;27913;42.722;23.268;2022-12-22T06:17:06;95211.56;;;-2.70;87.79
42247;BME280;27913;42.722;23.268;2022-12-22T06:19:31;95128.44;;;-3.25;88.87
42247;BME280;27913;42.722;23.268;2022-12-22T06:21:57;95208.66;;;-2.78;89.16
42247;BME280;27913;42.722;23.268;2022-12-22T06:24:23;95157.41;;;-3.09;89.33
42247;BME280;27913;42.722;23.268;2022-12-22T06:26:48;95221.44;;;-2.63;89.09
42247;BME280;27913;42.722;23.268;2022-12-22T06:29:13;95214.56;;;-2.63;88.73
42247;BME280;27913;42.722;23.268;2022-12-22T06:31:39;95219.59;;;-2.61;88.98
42247;BME280;27913;42.722;23.268;2022-12-22T06:34:05;95223.63;;;-2.57;nan
42247;BME280;27913;42.722;23.268;2022-12-22T06:36:30;95147.94;;;-3.08;89.54
42247;BME280;27913;42.722;23.268;2022-12-22T06:38:56;95223.22;;;-2.51;89.92
42247;BME280;27913;42.722;23.268;2022-12-22T06:41:21;95228.28;;;-2.49;89.57
42247;BME280;27913;42.722;23.268;2022-12-22T06:44:05;95235.19;;;-2.50;89.58
42247;BME280;27913;42.722;23.268;2022-12-22T06:46:31;95168.75;;;-2.98;90.09
42247;BME280;27913;42.722;23.268;2022-12-22T06:48:56;95125.97;;;-3.27;90.09
42247;BME280;27913;42.722;23.268;2022-12-22T06:51:22;95229.00;;;-2.60;90.27
42247;BME280;27913;42.722;23.268;2022-12-22T06:53:47;95240.31;;;-2.63;90.51
42247;BME280;27913;42.722;23.268;2022-12-22T06:56:13;95239.69;;;-2.67;91.26
42247;BME280;27913;42.722;23.268;2022-12-22T06:58:38;95246.59;;;-2.67;91.52
42247;BME280;27913;42.722;23.268;2022-12-22T07:01:04;95198.22;;;-2.89;91.87
42247;BME280;27913;42.722;23.268;2022-12-22T07:03:29;95240.72;;;-2.69;92.32
42247;BME280;27913;42.722;23.268;2022-12-22T07:05:55;95247.31;;;-2.65;92.39
42247;BME280;27913;42.722;23.268;2022-12-22T07:08:20;95240.00;;;-2.71;92.08
42247;BME280;27913;42.722;23.268;2022-12-22T07:10:46;95238.41;;;-2.74;92.11
42247;BME280;27913;42.722;23.268;2022-12-22T07:13:28;95236.06;;;-2.77;92.15
42247;BME280;27913;42.722;23.268;2022-12-22T07:15:54;95169.09;;;-3.18;92.11
42247;BME280;27913;42.722;23.268;2022-12-22T07:18:20;95201.41;;;-2.99;92.03
42247;BME280;27913;42.722;23.268;2022-12-22T07:20:45;95237.72;;;-2.76;92.17
42247;BME280;27913;42.722;23.268;2022-12-22T07:23:11;95236.06;;;-2.77;92.39
42247;BME280;27913;42.722;23.268;2022-12-22T07:25:37;95235.16;;;-2.76;92.46
42247;BME280;27913;42.722;23.268;2022-12-22T07:28:02;95146.72;;;-3.30;92.35
42247;BME280;27913;42.722;23.268;2022-12-22T07:30:28;95234.72;;;-2.70;92.54
42247;BME280;27913;42.722;23.268;2022-12-22T07:32:54;95233.81;;;-2.69;92.78
42247;BME280;27913;42.722;23.268;2022-12-22T07:35:19;95062.88;;;-3.73;92.44
42247;BME280;27913;42.722;23.268;2022-12-22T07:37:46;95240.31;;;-2.63;92.64
42247;BME280;27913;42.722;23.268;2022-12-22T07:40:12;95225.69;;;-2.62;92.46
42247;BME280;27913;42.722;23.268;2022-12-22T07:42:38;95234.94;;;-2.60;92.82
42247;BME280;27913;42.722;23.268;2022-12-22T07:45:11;95241.66;;;-2.57;92.81
42247;BME280;27913;42.722;23.268;2022-12-22T07:47:37;95236.22;;;-2.52;92.68
42247;BME280;27913;42.722;23.268;2022-12-22T07:50:03;95232.31;;;-2.45;93.04
42247;BME280;27913;42.722;23.268;2022-12-22T07:52:47;95198.91;;;-2.60;92.86
42247;BME280;27913;42.722;23.268;2022-12-22T07:55:13;95232.34;;;-2.32;92.71
42247;BME280;27913;42.722;23.268;2022-12-22T07:57:38;95229.13;;;-2.23;92.84
42247;BME280;27913;42.722;23.268;2022-12-22T08:00:05;95222.66;;;-2.15;92.45
42247;BME280;27913;42.722;23.268;2022-12-22T08:02:31;95225.41;;;-2.06;92.28
42247;BME280;27913;42.722;23.268;2022-12-22T08:04:57;95236.16;;;-1.99;91.88
42247;BME280;27913;42.722;23.268;2022-12-22T08:07:22;95172.66;;;-2.26;91.93
42247;BME280;27913;42.722;23.268;2022-12-22T08:09:48;95122.88;;;-2.52;91.69
42247;BME280;27913;42.722;23.268;2022-12-22T08:12:13;95115.88;;;-2.50;91.42
42247;BME280;27913;42.722;23.268;2022-12-22T08:14:40;95219.22;;;-1.77;91.33
42247;BME280;27913;42.722;23.268;2022-12-22T08:17:10;95051.28;;;-2.73;91.32
42247;BME280;27913;42.722;23.268;2022-12-22T08:19:36;95168.09;;;-1.96;91.12
42247;BME280;27913;42.722;23.268;2022-12-22T08:22:01;95216.41;;;-1.61;90.82
42247;BME280;27913;42.722;23.268;2022-12-22T08:24:27;95160.47;;;-1.98;91.29
42247;BME280;27913;42.722;23.268;2022-12-22T08:26:55;95220.75;;;-1.61;91.59
42247;BME280;27913;42.722;23.268;2022-12-22T08:29:38;95219.50;;;-1.55;91.74
42247;BME280;27913;42.722;23.268;2022-12-22T08:32:06;95227.53;;;-1.47;92.79
42247;BME280;27913;42.722;23.268;2022-12-22T08:34:32;95107.00;;;-2.20;92.09
42247;BME280;27913;42.722;23.268;2022-12-22T08:37:00;95223.69;;;-1.41;92.34
42247;BME280;27913;42.722;23.268;2022-12-22T08:39:27;95202.66;;;-1.48;92.14
42247;BME280;27913;42.722;23.268;2022-12-22T08:41:55;95210.16;;;-1.32;91.90
42247;BME280;27913;42.722;23.268;2022-12-22T08:44:24;95043.75;;;-2.37;91.98
42247;BME280;27913;42.722;23.268;2022-12-22T08:46:51;95213.00;;;-1.24;92.15
42247;BME280;27913;42.722;23.268;2022-12-22T08:49:18;95131.75;;;-1.67;91.76
42247;BME280;27913;42.722;23.268;2022-12-22T08:51:44;95208.97;;;-1.15;91.27
42247;BME280;27913;42.722;23.268;2022-12-22T08:54:09;95087.66;;;-1.88;90.74
42247;BME280;27913;42.722;23.268;2022-12-22T08:56:35;95198.56;;;-1.02;91.30
42247;BME280;27913;42.722;23.268;2022-12-22T08:59:01;95136.34;;;-1.35;90.17
42247;BME280;27913;42.722;23.268;2022-12-22T09:01:33;95169.56;;;-1.05;90.19
42247;BME280;27913;42.722;23.268;2022-12-22T09:03:59;95192.19;;;-0.84;90.25
42247;BME280;27913;42.722;23.268;2022-12-22T09:06:25;95190.78;;;-0.77;90.15
42247;BME280;27913;42.722;23.268;2022-12-22T09:08:59;95082.16;;;-1.35;89.81
42247;BME280;27913;42.722;23.268;2022-12-22T09:11:25;95070.09;;;-1.34;89.06
42247;BME280;27913;42.722;23.268;2022-12-22T09:13:51;95175.94;;;-0.62;89.22
42247;BME280;27913;42.722;23.268;2022-12-22T09:16:19;95165.97;;;-0.55;89.05
42247;BME280;27913;42.722;23.268;2022-12-22T09:18:45;95140.22;;;-0.68;88.74
42247;BME280;27913;42.722;23.268;2022-12-22T09:21:10;95164.00;;;-0.40;88.56
42247;BME280;27913;42.722;23.268;2022-12-22T09:23:36;95160.13;;;-0.34;87.86
42247;BME280;27913;42.722;23.268;2022-12-22T09:26:13;95161.31;;;-0.27;87.97
42247;BME280;27913;42.722;23.268;2022-12-22T09:28:39;95004.06;;;-1.25;86.86
42247;BME280;27913;42.722;23.268;2022-12-22T09:31:05;95110.75;;;-0.54;87.01
42247;BME280;27913;42.722;23.268;2022-12-22T09:33:31;95145.69;;;-0.26;87.34
42247;BME280;27913;42.722;23.268;2022-12-22T09:35:57;95106.53;;;-0.44;87.31
42247;BME280;27913;42.722;23.268;2022-12-22T09:38:26;95102.69;;;-0.38;87.31
42247;BME280;27913;42.722;23.268;2022-12-22T09:40:55;95146.66;;;-0.04;87.09
42247;BME280;27913;42.722;23.268;2022-12-22T09:43:28;95158.75;;;0.07;86.97
42247;BME280;27913;42.722;23.268;2022-12-22T09:45:55;95096.34;;;-0.22;86.51
42247;BME280;27913;42.722;23.268;2022-12-22T09:48:32;95155.81;;;0.23;84.83
42247;BME280;27913;42.722;23.268;2022-12-22T09:50:58;95151.91;;;0.29;84.49
42247;BME280;27913;42.722;23.268;2022-12-22T09:53:24;95141.09;;;0.35;84.19
42247;BME280;27913;42.722;23.268;2022-12-22T09:55:50;95137.19;;;0.41;83.87
42247;BME280;27913;42.722;23.268;2022-12-22T09:58:18;95137.28;;;0.51;83.58
42247;BME280;27913;42.722;23.268;2022-12-22T10:00:51;95132.81;;;0.53;82.95
42247;BME280;27913;42.722;23.268;2022-12-22T10:03:29;95096.88;;;0.39;83.27
42247;BME280;27913;42.722;23.268;2022-12-22T10:06:04;95055.38;;;0.29;81.99
42247;BME280;27913;42.722;23.268;2022-12-22T10:08:35;95124.59;;;0.81;81.85
42247;BME280;27913;42.722;23.268;2022-12-22T10:11:02;95117.88;;;0.90;81.49
42247;BME280;27913;42.722;23.268;2022-12-22T10:13:27;95057.72;;;0.65;81.69
42247;BME280;27913;42.722;23.268;2022-12-22T10:15:53;95105.16;;;1.19;80.39
42247;BME280;27913;42.722;23.268;2022-12-22T10:18:25;95009.13;;;0.68;79.22
42247;BME280;27913;42.722;23.268;2022-12-22T10:21:26;95098.63;;;1.47;78.32
42247;BME280;27913;42.722;23.268;2022-12-22T10:23:52;94939.66;;;0.52;78.22
42247;BME280;27913;42.722;23.268;2022-12-22T10:29:00;95023.91;;;1.30;76.66
42247;BME280;27913;42.722;23.268;2022-12-22T10:31:29;95065.78;;;1.57;77.11
42247;BME280;27913;42.722;23.268;2022-12-22T10:33:57;95024.91;;;1.39;77.09
42247;BME280;27913;42.722;23.268;2022-12-22T10:36:34;95079.84;;;1.86;76.93
42247;BME280;27913;42.722;23.268;2022-12-22T10:39:06;95048.13;;;1.72;76.36
42247;BME280;27913;42.722;23.268;2022-12-22T10:41:39;95012.56;;;1.53;75.83
42247;BME280;27913;42.722;23.268;2022-12-22T10:44:10;95028.72;;;1.66;75.69
42247;BME280;27913;42.722;23.268;2022-12-22T10:46:48;95070.72;;;1.91;75.20
42247;BME280;27913;42.722;23.268;2022-12-22T10:49:19;95052.72;;;2.00;74.83
42247;BME280;27913;42.722;23.268;2022-12-22T10:51:49;94994.31;;;1.64;75.17
42247;BME280;27913;42.722;23.268;2022-12-22T10:54:27;95054.63;;;2.08;75.17
42247;BME280;27913;42.722;23.268;2022-12-22T10:57:43;95047.41;;;2.11;74.75
42247;BME280;27913;42.722;23.268;2022-12-22T10:59:51;95040.31;;;2.13;74.57
42247;BME280;27913;42.722;23.268;2022-12-22T11:04:46;95020.38;;;2.14;74.42
42247;BME280;27913;42.722;23.268;2022-12-22T11:07:12;94984.44;;;1.99;74.16
42247;BME280;27913;42.722;23.268;2022-12-22T11:09:37;95035.72;;;2.37;74.21
42247;BME280;27913;42.722;23.268;2022-12-22T11:20:28;94993.34;;;2.36;73.26
42247;BME280;27913;42.722;23.268;2022-12-22T11:25:43;95029.03;;;2.74;72.24
42247;BME280;27913;42.722;23.268;2022-12-22T11:28:47;94991.97;;;2.62;72.25
42247;BME280;27913;42.722;23.268;2022-12-22T11:34:14;94971.47;;;2.59;71.33
42247;BME280;27913;42.722;23.268;2022-12-22T11:39:39;94989.78;;;2.77;70.66
42247;BME280;27913;42.722;23.268;2022-12-22T11:48:12;94965.16;;;2.91;70.31
42247;BME280;27913;42.722;23.268;2022-12-22T11:50:49;94938.13;;;2.74;69.78
42247;BME280;27913;42.722;23.268;2022-12-22T11:56:34;94980.38;;;3.24;69.45
42247;BME280;27913;42.722;23.268;2022-12-22T12:09:46;94928.97;;;3.18;70.08
42247;BME280;27913;42.722;23.268;2022-12-22T12:17:45;94941.47;;;3.42;69.34
42247;BME280;27913;42.722;23.268;2022-12-22T12:22:54;94881.53;;;3.16;69.94
42247;BME280;27913;42.722;23.268;2022-12-22T12:26:06;94906.31;;;3.38;69.13
42247;BME280;27913;42.722;23.268;2022-12-22T12:31:31;94974.59;;;3.96;68.06
42247;BME280;27913;42.722;23.268;2022-12-22T12:33:59;94934.88;;;3.94;67.69
42247;BME280;27913;42.722;23.268;2022-12-22T12:42:03;94961.53;;;4.25;68.42
42247;BME280;27913;42.722;23.268;2022-12-22T12:44:35;94963.81;;;4.28;68.86
42247;BME280;27913;42.722;23.268;2022-12-22T12:50:33;94962.13;;;4.37;68.46
42247;BME280;27913;42.722;23.268;2022-12-22T12:53:04;94907.22;;;4.11;67.74
42247;BME280;27913;42.722;23.268;2022-12-22T12:58:08;94959.56;;;4.45;67.58
42247;BME280;27913;42.722;23.268;2022-12-22T13:03:10;94922.84;;;4.30;68.64
42247;BME280;27913;42.722;23.268;2022-12-22T13:05:57;94889.16;;;4.10;68.75
42247;BME280;27913;42.722;23.268;2022-12-22T13:15:46;94933.41;;;4.28;69.90
42247;BME280;27913;42.722;23.268;2022-12-22T13:20:56;94887.59;;;3.99;70.08
42247;BME280;27913;42.722;23.268;2022-12-22T13:23:23;94880.09;;;3.96;70.34
42247;BME280;27913;42.722;23.268;2022-12-22T13:25:59;94946.50;;;4.37;71.25
42247;BME280;27913;42.722;23.268;2022-12-22T13:28:27;94862.69;;;3.78;71.40
42247;BME280;27913;42.722;23.268;2022-12-22T13:31:04;94945.16;;;4.32;71.29
42247;BME280;27913;42.722;23.268;2022-12-22T13:33:36;94942.53;;;4.32;71.28
42247;BME280;27913;42.722;23.268;2022-12-22T13:36:05;94943.00;;;4.28;71.24
42247;BME280;27913;42.722;23.268;2022-12-22T13:38:35;94943.53;;;4.31;71.56
42247;BME280;27913;42.722;23.268;2022-12-22T13:41:10;94943.38;;;4.33;71.39
42247;BME280;27913;42.722;23.268;2022-12-22T13:43:41;94907.53;;;4.08;71.33
42247;BME280;27913;42.722;23.268;2022-12-22T13:46:08;94935.19;;;4.28;71.38
42247;BME280;27913;42.722;23.268;2022-12-22T13:48:40;94947.22;;;4.29;71.71
42247;BME280;27913;42.722;23.268;2022-12-22T13:51:27;94920.75;;;4.15;71.47
42247;BME280;27913;42.722;23.268;2022-12-22T13:53:55;94931.59;;;4.29;71.54
42247;BME280;27913;42.722;23.268;2022-12-22T13:56:40;94934.38;;;4.27;71.81
42247;BME280;27913;42.722;23.268;2022-12-22T14:02:14;94903.16;;;4.09;72.07
42247;BME280;27913;42.722;23.268;2022-12-22T14:04:42;94814.66;;;3.54;72.14
42247;BME280;27913;42.722;23.268;2022-12-22T14:07:15;94924.78;;;4.28;71.96
42247;BME280;27913;42.722;23.268;2022-12-22T14:09:48;94928.50;;;4.25;72.09
42247;BME280;27913;42.722;23.268;2022-12-22T14:12:17;94924.25;;;4.24;72.01
42247;BME280;27913;42.722;23.268;2022-12-22T14:14:46;94921.66;;;4.24;72.23
42247;BME280;27913;42.722;23.268;2022-12-22T14:17:25;94920.81;;;4.23;72.15
42247;BME280;27913;42.722;23.268;2022-12-22T14:19:53;94906.28;;;4.13;72.11
42247;BME280;27913;42.722;23.268;2022-12-22T14:22:33;94920.19;;;4.21;72.42
42247;BME280;27913;42.722;23.268;2022-12-22T14:25:07;94880.09;;;3.96;72.31
42247;BME280;27913;42.722;23.268;2022-12-22T14:27:54;94850.66;;;3.77;72.49
42247;BME280;27913;42.722;23.268;2022-12-22T14:30:26;94920.09;;;4.13;72.58
42247;BME280;27913;42.722;23.268;2022-12-22T14:32:54;94915.34;;;4.08;73.04
42247;BME280;27913;42.722;23.268;2022-12-22T14:37:49;94904.63;;;3.93;73.37
42247;BME280;27913;42.722;23.268;2022-12-22T14:40:34;94890.72;;;3.84;73.16
42247;BME280;27913;42.722;23.268;2022-12-22T14:43:04;94879.03;;;3.70;73.39
42247;BME280;27913;42.722;23.268;2022-12-22T14:45:31;94927.22;;;3.93;73.92
42247;BME280;27913;42.722;23.268;2022-12-22T14:47:57;94876.09;;;3.55;74.24
42247;BME280;27913;42.722;23.268;2022-12-22T14:50:27;94920.28;;;3.83;74.63
42247;BME280;27913;42.722;23.268;2022-12-22T14:52:55;94833.34;;;3.21;74.95
42247;BME280;27913;42.722;23.268;2022-12-22T14:55:30;94785.00;;;2.82;74.84
42247;BME280;27913;42.722;23.268;2022-12-22T14:58:24;94933.28;;;3.65;75.59
42247;BME280;27913;42.722;23.268;2022-12-22T15:03:39;94939.63;;;3.53;76.20
42247;BME280;27913;42.722;23.268;2022-12-22T15:06:30;94933.38;;;3.45;76.53
42247;BME280;27913;42.722;23.268;2022-12-22T15:11:31;94936.03;;;3.35;77.08
42247;BME280;27913;42.722;23.268;2022-12-22T15:13:58;94895.91;;;3.10;77.43
42247;BME280;27913;42.722;23.268;2022-12-22T15:16:25;94928.78;;;3.29;77.80